sensor_id;sensor_type;location;lat;lon;timestamp;temperature;humidity
22742;DHT22;11538;48.884;8.696;2022-11-15T00:01:14;10.90;99.90
22742;DHT22;11538;48.884;8.696;2022-11-15T00:03:43;10.90;99.90
22742;DHT22;11538;48.884;8.696;2022-11-15T00:06:11;10.90;99.90
22742;DHT22;11538;48.884;8.696;2022-11-15T00:08:38;10.90;99.90
22742;DHT22;11538;48.884;8.696;2022-11-15T00:11:05;10.80;99.90
22742;DHT22;11538;48.884;8.696;2022-11-15T00:13:32;10.80;99.90
22742;DHT22;11538;48.884;8.696;2022-11-15T00:16:00;10.80;99.90
22742;DHT22;11538;48.884;8.696;2022-11-15T00:18:28;10.80;99.90
22742;DHT22;11538;48.884;8.696;2022-11-15T00:21:05;10.70;99.90
22742;DHT22;11538;48.884;8.696;2022-11-15T00:23:41;10.70;99.90
22742;DHT22;11538;48.884;8.696;2022-11-15T00:26:10;10.60;99.90
22742;DHT22;11538;48.884;8.696;2022-11-15T00:28:39;10.70;99.90
22742;DHT22;11538;48.884;8.696;2022-11-15T00:31:08;10.60;99.90
22742;DHT22;11538;48.884;8.696;2022-11-15T00:33:38;10.70;99.90
22742;DHT22;11538;48.884;8.696;2022-11-15T00:36:06;10.70;99.90
22742;DHT22;11538;48.884;8.696;2022-11-15T00:38:37;10.70;99.90
22742;DHT22;11538;48.884;8.696;2022-11-15T00:41:06;10.70;99.90
22742;DHT22;11538;48.884;8.696;2022-11-15T00:43:35;10.70;99.90
22742;DHT22;11538;48.884;8.696;2022-11-15T00:46:02;10.70;99.90
22742;DHT22;11538;48.884;8.696;2022-11-15T00:48:29;10.70;99.90
22742;DHT22;11538;48.884;8.696;2022-11-15T00:50:56;10.70;99.90
22742;DHT22;11538;48.884;8.696;2022-11-15T00:53:23;10.70;99.90
22742;DHT22;11538;48.884;8.696;2022-11-15T00:55:50;10.60;99.90
22742;DHT22;11538;48.884;8.696;2022-11-15T00:58:17;10.60;99.90
22742;DHT22;11538;48.884;8.696;2022-11-15T01:00:44;10.60;99.90
22742;DHT22;11538;48.884;8.696;2022-11-15T01:03:11;10.60;99.90
22742;DHT22;11538;48.884;8.696;2022-11-15T01:05:37;10.60;99.90
22742;DHT22;11538;48.884;8.696;2022-11-15T01:08:04;10.60;99.90
22742;DHT22;11538;48.884;8.696;2022-11-15T01:10:31;10.50;99.90
22742;DHT22;11538;48.884;8.696;2022-11-15T01:12:58;10.50;99.90
22742;DHT22;11538;48.884;8.696;2022-11-15T01:15:24;10.50;99.90
22742;DHT22;11538;48.884;8.696;2022-11-15T01:17:51;10.50;99.90
22742;DHT22;11538;48.884;8.696;2022-11-15T01:20:18;10.40;99.90
22742;DHT22;11538;48.884;8.696;2022-11-15T01:22:45;10.40;99.90
22742;DHT22;11538;48.884;8.696;2022-11-15T01:25:12;10.40;99.90
22742;DHT22;11538;48.884;8.696;2022-11-15T01:27:38;10.40;99.90
22742;DHT22;11538;48.884;8.696;2022-11-15T01:30:05;10.40;99.90
22742;DHT22;11538;48.884;8.696;2022-11-15T01:32:33;10.40;99.90
22742;DHT22;11538;48.884;8.696;2022-11-15T01:34:59;10.40;99.90
22742;DHT22;11538;48.884;8.696;2022-11-15T01:37:26;10.40;99.90
22742;DHT22;11538;48.884;8.696;2022-11-15T01:39:53;10.40;99.90
22742;DHT22;11538;48.884;8.696;2022-11-15T01:42:20;10.30;99.90
22742;DHT22;11538;48.884;8.696;2022-11-15T01:44:47;10.40;99.90
22742;DHT22;11538;48.884;8.696;2022-11-15T01:50:04;10.30;99.90
22742;DHT22;11538;48.884;8.696;2022-11-15T01:52:36;10.30;99.90
22742;DHT22;11538;48.884;8.696;2022-11-15T01:57:31;10.30;99.90
22742;DHT22;11538;48.884;8.696;2022-11-15T01:59:58;10.30;99.90
22742;DHT22;11538;48.884;8.696;2022-11-15T02:02:27;10.30;99.90
22742;DHT22;11538;48.884;8.696;2022-11-15T02:04:54;10.30;99.90
22742;DHT22;11538;48.884;8.696;2022-11-15T02:07:21;10.30;99.90
22742;DHT22;11538;48.884;8.696;2022-11-15T02:09:49;10.30;99.90
22742;DHT22;11538;48.884;8.696;2022-11-15T02:12:18;10.30;99.90
22742;DHT22;11538;48.884;8.696;2022-11-15T02:14:48;10.30;99.90
22742;DHT22;11538;48.884;8.696;2022-11-15T02:17:29;10.30;99.90
22742;DHT22;11538;48.884;8.696;2022-11-15T02:20:17;10.30;99.90
22742;DHT22;11538;48.884;8.696;2022-11-15T02:25:50;10.30;99.90
22742;DHT22;11538;48.884;8.696;2022-11-15T02:34:19;10.30;99.90
22742;DHT22;11538;48.884;8.696;2022-11-15T02:36:59;10.20;99.90
22742;DHT22;11538;48.884;8.696;2022-11-15T02:39:49;10.30;99.90
22742;DHT22;11538;48.884;8.696;2022-11-15T02:42:21;10.30;99.90
22742;DHT22;11538;48.884;8.696;2022-11-15T02:45:12;10.30;99.90
22742;DHT22;11538;48.884;8.696;2022-11-15T02:47:45;10.30;99.90
22742;DHT22;11538;48.884;8.696;2022-11-15T02:50:18;10.30;99.90
22742;DHT22;11538;48.884;8.696;2022-11-15T02:52:48;10.30;99.90
22742;DHT22;11538;48.884;8.696;2022-11-15T03:00:34;10.20;99.90
22742;DHT22;11538;48.884;8.696;2022-11-15T03:03:21;10.20;99.90
22742;DHT22;11538;48.884;8.696;2022-11-15T03:05:54;10.20;99.90
22742;DHT22;11538;48.884;8.696;2022-11-15T03:08:32;10.20;99.90
22742;DHT22;11538;48.884;8.696;2022-11-15T03:11:13;10.20;99.90
22742;DHT22;11538;48.884;8.696;2022-11-15T03:16:33;10.20;99.90
22742;DHT22;11538;48.884;8.696;2022-11-15T03:19:12;10.20;99.90
22742;DHT22;11538;48.884;8.696;2022-11-15T03:21:42;10.20;99.90
22742;DHT22;11538;48.884;8.696;2022-11-15T03:24:11;10.10;99.90
22742;DHT22;11538;48.884;8.696;2022-11-15T03:26:40;10.10;99.90
22742;DHT22;11538;48.884;8.696;2022-11-15T03:29:14;10.20;99.90
22742;DHT22;11538;48.884;8.696;2022-11-15T03:31:44;10.20;99.90
22742;DHT22;11538;48.884;8.696;2022-11-15T03:34:27;10.20;99.90
22742;DHT22;11538;48.884;8.696;2022-11-15T03:36:59;10.20;99.90
22742;DHT22;11538;48.884;8.696;2022-11-15T03:39:26;10.10;99.90
22742;DHT22;11538;48.884;8.696;2022-11-15T03:49:46;10.10;99.90
22742;DHT22;11538;48.884;8.696;2022-11-15T03:52:19;10.10;99.90
22742;DHT22;11538;48.884;8.696;2022-11-15T03:54:48;10.10;99.90
22742;DHT22;11538;48.884;8.696;2022-11-15T03:57:16;10.10;99.90
22742;DHT22;11538;48.884;8.696;2022-11-15T03:59:43;10.10;99.90
22742;DHT22;11538;48.884;8.696;2022-11-15T04:02:10;10.10;99.90
22742;DHT22;11538;48.884;8.696;2022-11-15T04:04:38;10.10;99.90
22742;DHT22;11538;48.884;8.696;2022-11-15T04:07:04;10.10;99.90
22742;DHT22;11538;48.884;8.696;2022-11-15T04:09:31;10.20;99.90
22742;DHT22;11538;48.884;8.696;2022-11-15T04:11:58;10.20;99.90
22742;DHT22;11538;48.884;8.696;2022-11-15T04:14:25;10.10;99.90
22742;DHT22;11538;48.884;8.696;2022-11-15T04:16:52;10.20;99.90
22742;DHT22;11538;48.884;8.696;2022-11-15T04:19:19;10.20;99.90
22742;DHT22;11538;48.884;8.696;2022-11-15T04:22:04;10.20;99.90
22742;DHT22;11538;48.884;8.696;2022-11-15T04:24:49;10.20;99.90
22742;DHT22;11538;48.884;8.696;2022-11-15T04:27:16;10.20;99.90
22742;DHT22;11538;48.884;8.696;2022-11-15T04:29:43;10.20;99.90
22742;DHT22;11538;48.884;8.696;2022-11-15T04:32:09;10.20;99.90
22742;DHT22;11538;48.884;8.696;2022-11-15T04:34:36;10.20;99.90
22742;DHT22;11538;48.884;8.696;2022-11-15T04:37:04;10.20;99.90
22742;DHT22;11538;48.884;8.696;2022-11-15T04:39:41;10.20;99.90
22742;DHT22;11538;48.884;8.696;2022-11-15T04:42:09;10.20;99.90
22742;DHT22;11538;48.884;8.696;2022-11-15T04:44:36;10.20;99.90
22742;DHT22;11538;48.884;8.696;2022-11-15T04:47:03;10.20;99.90
22742;DHT22;11538;48.884;8.696;2022-11-15T04:49:30;10.20;99.90
22742;DHT22;11538;48.884;8.696;2022-11-15T04:51:57;10.20;99.90
22742;DHT22;11538;48.884;8.696;2022-11-15T04:54:24;10.20;99.90
22742;DHT22;11538;48.884;8.696;2022-11-15T04:56:51;10.20;99.90
22742;DHT22;11538;48.884;8.696;2022-11-15T04:59:17;10.20;99.90
22742;DHT22;11538;48.884;8.696;2022-11-15T05:01:44;10.20;99.90
22742;DHT22;11538;48.884;8.696;2022-11-15T05:04:11;10.20;99.90
22742;DHT22;11538;48.884;8.696;2022-11-15T05:06:47;10.20;99.90
22742;DHT22;11538;48.884;8.696;2022-11-15T05:09:16;10.20;99.90
22742;DHT22;11538;48.884;8.696;2022-11-15T05:11:44;10.20;99.90
22742;DHT22;11538;48.884;8.696;2022-11-15T05:14:12;10.20;99.90
22742;DHT22;11538;48.884;8.696;2022-11-15T05:16:39;10.30;99.90
22742;DHT22;11538;48.884;8.696;2022-11-15T05:19:06;10.30;99.90
22742;DHT22;11538;48.884;8.696;2022-11-15T05:21:34;10.30;99.90
22742;DHT22;11538;48.884;8.696;2022-11-15T05:24:01;10.30;99.90
22742;DHT22;11538;48.884;8.696;2022-11-15T05:26:28;10.30;99.90
22742;DHT22;11538;48.884;8.696;2022-11-15T05:28:56;10.30;99.90
22742;DHT22;11538;48.884;8.696;2022-11-15T05:31:24;10.30;99.90
22742;DHT22;11538;48.884;8.696;2022-11-15T05:33:52;10.40;99.90
22742;DHT22;11538;48.884;8.696;2022-11-15T05:39:05;10.40;99.90
22742;DHT22;11538;48.884;8.696;2022-11-15T05:41:45;10.40;99.90
22742;DHT22;11538;48.884;8.696;2022-11-15T05:44:16;10.40;99.90
22742;DHT22;11538;48.884;8.696;2022-11-15T05:46:46;10.40;99.90
22742;DHT22;11538;48.884;8.696;2022-11-15T05:49:16;10.40;99.90
22742;DHT22;11538;48.884;8.696;2022-11-15T05:51:47;10.40;99.90
22742;DHT22;11538;48.884;8.696;2022-11-15T05:54:15;10.40;99.90
22742;DHT22;11538;48.884;8.696;2022-11-15T05:56:43;10.40;99.90
22742;DHT22;11538;48.884;8.696;2022-11-15T05:59:10;10.40;99.90
22742;DHT22;11538;48.884;8.696;2022-11-15T06:01:37;10.40;99.90
22742;DHT22;11538;48.884;8.696;2022-11-15T06:04:06;10.40;99.90
22742;DHT22;11538;48.884;8.696;2022-11-15T06:06:33;10.40;99.90
22742;DHT22;11538;48.884;8.696;2022-11-15T06:09:00;10.40;99.90
22742;DHT22;11538;48.884;8.696;2022-11-15T06:11:27;10.40;99.90
22742;DHT22;11538;48.884;8.696;2022-11-15T06:13:54;10.40;99.90
22742;DHT22;11538;48.884;8.696;2022-11-15T06:16:21;10.30;99.90
22742;DHT22;11538;48.884;8.696;2022-11-15T06:18:47;10.30;99.90
22742;DHT22;11538;48.884;8.696;2022-11-15T06:21:14;10.30;99.90
22742;DHT22;11538;48.884;8.696;2022-11-15T06:23:41;10.30;99.90
22742;DHT22;11538;48.884;8.696;2022-11-15T06:26:08;10.30;99.90
22742;DHT22;11538;48.884;8.696;2022-11-15T06:28:34;10.30;99.90
22742;DHT22;11538;48.884;8.696;2022-11-15T06:31:02;10.30;99.90
22742;DHT22;11538;48.884;8.696;2022-11-15T06:33:33;10.30;99.90
22742;DHT22;11538;48.884;8.696;2022-11-15T06:36:01;10.30;99.90
22742;DHT22;11538;48.884;8.696;2022-11-15T06:38:29;10.30;99.90
22742;DHT22;11538;48.884;8.696;2022-11-15T06:41:03;10.30;99.90
22742;DHT22;11538;48.884;8.696;2022-11-15T06:43:31;10.30;99.90
22742;DHT22;11538;48.884;8.696;2022-11-15T06:45:59;10.30;99.90
22742;DHT22;11538;48.884;8.696;2022-11-15T06:48:27;10.30;99.90
22742;DHT22;11538;48.884;8.696;2022-11-15T06:50:56;10.30;99.90
22742;DHT22;11538;48.884;8.696;2022-11-15T06:53:24;10.30;99.90
22742;DHT22;11538;48.884;8.696;2022-11-15T06:55:52;10.30;99.90
22742;DHT22;11538;48.884;8.696;2022-11-15T06:58:21;10.40;99.90
22742;DHT22;11538;48.884;8.696;2022-11-15T07:00:48;10.40;99.90
22742;DHT22;11538;48.884;8.696;2022-11-15T07:03:15;10.40;99.90
22742;DHT22;11538;48.884;8.696;2022-11-15T07:05:41;10.40;99.90
22742;DHT22;11538;48.884;8.696;2022-11-15T07:08:08;10.40;99.90
22742;DHT22;11538;48.884;8.696;2022-11-15T07:10:36;10.40;99.90
22742;DHT22;11538;48.884;8.696;2022-11-15T07:13:02;10.40;99.90
22742;DHT22;11538;48.884;8.696;2022-11-15T07:15:29;10.40;99.90
22742;DHT22;11538;48.884;8.696;2022-11-15T07:17:59;10.40;99.90
22742;DHT22;11538;48.884;8.696;2022-11-15T07:20:27;10.50;99.90
22742;DHT22;11538;48.884;8.696;2022-11-15T07:23:03;10.50;99.90
22742;DHT22;11538;48.884;8.696;2022-11-15T07:25:31;10.50;99.90
22742;DHT22;11538;48.884;8.696;2022-11-15T07:27:58;10.50;99.90
22742;DHT22;11538;48.884;8.696;2022-11-15T07:30:26;10.60;99.90
22742;DHT22;11538;48.884;8.696;2022-11-15T07:32:55;10.60;99.90
22742;DHT22;11538;48.884;8.696;2022-11-15T07:35:26;10.60;99.90
22742;DHT22;11538;48.884;8.696;2022-11-15T07:37:55;10.70;99.90
22742;DHT22;11538;48.884;8.696;2022-11-15T07:40:22;10.60;99.90
22742;DHT22;11538;48.884;8.696;2022-11-15T07:42:49;10.70;99.90
22742;DHT22;11538;48.884;8.696;2022-11-15T07:45:19;10.70;99.90
22742;DHT22;11538;48.884;8.696;2022-11-15T07:47:47;10.80;99.90
22742;DHT22;11538;48.884;8.696;2022-11-15T07:50:16;10.80;99.90
22742;DHT22;11538;48.884;8.696;2022-11-15T07:52:44;10.80;99.90
22742;DHT22;11538;48.884;8.696;2022-11-15T07:55:11;10.90;99.90
22742;DHT22;11538;48.884;8.696;2022-11-15T07:57:38;10.90;99.90
22742;DHT22;11538;48.884;8.696;2022-11-15T08:00:05;11.00;99.90
22742;DHT22;11538;48.884;8.696;2022-11-15T08:02:33;11.00;99.90
22742;DHT22;11538;48.884;8.696;2022-11-15T08:05:00;11.10;99.90
22742;DHT22;11538;48.884;8.696;2022-11-15T08:07:28;11.10;99.90
22742;DHT22;11538;48.884;8.696;2022-11-15T08:09:57;11.20;99.90
22742;DHT22;11538;48.884;8.696;2022-11-15T08:12:25;11.20;99.90
22742;DHT22;11538;48.884;8.696;2022-11-15T08:14:53;11.30;99.90
22742;DHT22;11538;48.884;8.696;2022-11-15T08:17:19;11.30;99.90
22742;DHT22;11538;48.884;8.696;2022-11-15T08:19:46;11.30;99.90
22742;DHT22;11538;48.884;8.696;2022-11-15T08:22:13;11.40;99.90
22742;DHT22;11538;48.884;8.696;2022-11-15T08:24:40;11.40;99.90
22742;DHT22;11538;48.884;8.696;2022-11-15T08:27:07;11.40;99.90
22742;DHT22;11538;48.884;8.696;2022-11-15T08:29:42;11.50;99.90
22742;DHT22;11538;48.884;8.696;2022-11-15T08:32:10;11.50;99.90
22742;DHT22;11538;48.884;8.696;2022-11-15T08:34:37;11.50;99.90
22742;DHT22;11538;48.884;8.696;2022-11-15T08:37:05;11.60;99.90
22742;DHT22;11538;48.884;8.696;2022-11-15T08:39:32;11.60;99.90
22742;DHT22;11538;48.884;8.696;2022-11-15T08:41:58;11.60;99.90
22742;DHT22;11538;48.884;8.696;2022-11-15T08:44:25;11.60;99.90
22742;DHT22;11538;48.884;8.696;2022-11-15T08:46:52;11.60;99.90
22742;DHT22;11538;48.884;8.696;2022-11-15T08:49:19;11.60;99.90
22742;DHT22;11538;48.884;8.696;2022-11-15T08:51:46;11.60;99.90
22742;DHT22;11538;48.884;8.696;2022-11-15T08:54:13;11.60;99.90
22742;DHT22;11538;48.884;8.696;2022-11-15T08:56:39;11.70;99.90
22742;DHT22;11538;48.884;8.696;2022-11-15T08:59:06;11.70;99.90
22742;DHT22;11538;48.884;8.696;2022-11-15T09:01:33;11.70;99.90
22742;DHT22;11538;48.884;8.696;2022-11-15T09:04:00;11.80;99.90
22742;DHT22;11538;48.884;8.696;2022-11-15T09:06:27;11.80;99.90
22742;DHT22;11538;48.884;8.696;2022-11-15T09:08:56;11.90;99.90
22742;DHT22;11538;48.884;8.696;2022-11-15T09:11:24;11.90;99.90
22742;DHT22;11538;48.884;8.696;2022-11-15T09:13:50;11.90;99.90
22742;DHT22;11538;48.884;8.696;2022-11-15T09:16:18;12.00;99.90
22742;DHT22;11538;48.884;8.696;2022-11-15T09:18:44;12.00;99.90
22742;DHT22;11538;48.884;8.696;2022-11-15T09:21:12;12.00;99.90
22742;DHT22;11538;48.884;8.696;2022-11-15T09:23:39;12.10;99.90
22742;DHT22;11538;48.884;8.696;2022-11-15T09:26:06;12.10;99.90
22742;DHT22;11538;48.884;8.696;2022-11-15T09:28:33;12.10;99.90
22742;DHT22;11538;48.884;8.696;2022-11-15T09:31:02;12.10;99.90
22742;DHT22;11538;48.884;8.696;2022-11-15T09:33:30;12.20;99.90
22742;DHT22;11538;48.884;8.696;2022-11-15T09:36:01;12.20;99.90
22742;DHT22;11538;48.884;8.696;2022-11-15T09:38:33;12.20;99.90
22742;DHT22;11538;48.884;8.696;2022-11-15T09:44:14;12.30;99.90
22742;DHT22;11538;48.884;8.696;2022-11-15T09:49:57;12.40;99.90
22742;DHT22;11538;48.884;8.696;2022-11-15T09:52:26;12.40;99.90
22742;DHT22;11538;48.884;8.696;2022-11-15T09:54:54;12.40;99.90
22742;DHT22;11538;48.884;8.696;2022-11-15T09:57:32;12.50;99.90
22742;DHT22;11538;48.884;8.696;2022-11-15T10:00:15;12.50;99.90
22742;DHT22;11538;48.884;8.696;2022-11-15T10:03:16;12.50;99.90
22742;DHT22;11538;48.884;8.696;2022-11-15T10:05:48;12.50;99.90
22742;DHT22;11538;48.884;8.696;2022-11-15T10:11:03;12.60;99.90
22742;DHT22;11538;48.884;8.696;2022-11-15T10:14:02;12.60;99.90
22742;DHT22;11538;48.884;8.696;2022-11-15T10:22:19;12.70;99.90
22742;DHT22;11538;48.884;8.696;2022-11-15T10:25:16;12.70;99.90
22742;DHT22;11538;48.884;8.696;2022-11-15T10:27:43;12.80;99.90
22742;DHT22;11538;48.884;8.696;2022-11-15T10:30:14;12.80;99.90
22742;DHT22;11538;48.884;8.696;2022-11-15T10:32:44;12.80;99.90
22742;DHT22;11538;48.884;8.696;2022-11-15T10:35:26;12.90;99.90
22742;DHT22;11538;48.884;8.696;2022-11-15T10:38:08;12.90;99.90
22742;DHT22;11538;48.884;8.696;2022-11-15T10:40:37;13.00;99.90
22742;DHT22;11538;48.884;8.696;2022-11-15T10:45:35;13.00;99.90
22742;DHT22;11538;48.884;8.696;2022-11-15T10:48:19;13.00;99.90
22742;DHT22;11538;48.884;8.696;2022-11-15T10:50:49;13.00;99.90
22742;DHT22;11538;48.884;8.696;2022-11-15T10:53:26;13.00;99.90
22742;DHT22;11538;48.884;8.696;2022-11-15T10:55:58;13.00;99.90
22742;DHT22;11538;48.884;8.696;2022-11-15T11:01:17;13.00;99.90
22742;DHT22;11538;48.884;8.696;2022-11-15T11:06:31;13.00;99.90
22742;DHT22;11538;48.884;8.696;2022-11-15T11:09:34;13.00;99.90
22742;DHT22;11538;48.884;8.696;2022-11-15T11:12:02;13.00;99.90
22742;DHT22;11538;48.884;8.696;2022-11-15T11:14:32;13.10;99.90
22742;DHT22;11538;48.884;8.696;2022-11-15T11:17:05;13.10;99.90
22742;DHT22;11538;48.884;8.696;2022-11-15T11:22:26;13.20;99.90
22742;DHT22;11538;48.884;8.696;2022-11-15T11:36:25;13.70;99.90
22742;DHT22;11538;48.884;8.696;2022-11-15T11:39:21;13.70;99.90
22742;DHT22;11538;48.884;8.696;2022-11-15T11:42:01;13.80;99.90
22742;DHT22;11538;48.884;8.696;2022-11-15T11:48:05;13.90;99.90
22742;DHT22;11538;48.884;8.696;2022-11-15T11:50:47;14.00;99.90
22742;DHT22;11538;48.884;8.696;2022-11-15T11:53:21;14.00;99.90
22742;DHT22;11538;48.884;8.696;2022-11-15T11:55:57;14.00;99.90
22742;DHT22;11538;48.884;8.696;2022-11-15T11:58:38;14.00;99.90
22742;DHT22;11538;48.884;8.696;2022-11-15T12:04:03;14.10;99.90
22742;DHT22;11538;48.884;8.696;2022-11-15T12:09:14;14.10;99.90
22742;DHT22;11538;48.884;8.696;2022-11-15T12:12:06;14.10;99.90
22742;DHT22;11538;48.884;8.696;2022-11-15T12:14:51;14.10;99.90
22742;DHT22;11538;48.884;8.696;2022-11-15T12:17:26;14.00;99.90
22742;DHT22;11538;48.884;8.696;2022-11-15T12:20:06;14.00;99.90
22742;DHT22;11538;48.884;8.696;2022-11-15T12:25:31;13.90;99.90
22742;DHT22;11538;48.884;8.696;2022-11-15T12:28:12;13.90;99.90
22742;DHT22;11538;48.884;8.696;2022-11-15T12:31:03;13.90;99.90
22742;DHT22;11538;48.884;8.696;2022-11-15T12:33:38;13.90;99.90
22742;DHT22;11538;48.884;8.696;2022-11-15T12:36:34;13.90;99.90
22742;DHT22;11538;48.884;8.696;2022-11-15T12:39:08;13.90;99.90
22742;DHT22;11538;48.884;8.696;2022-11-15T12:41:37;13.90;99.90
22742;DHT22;11538;48.884;8.696;2022-11-15T12:47:24;13.90;99.90
22742;DHT22;11538;48.884;8.696;2022-11-15T12:49:52;13.90;99.90
22742;DHT22;11538;48.884;8.696;2022-11-15T12:52:20;14.00;99.90
22742;DHT22;11538;48.884;8.696;2022-11-15T12:54:50;14.00;99.90
22742;DHT22;11538;48.884;8.696;2022-11-15T13:04:52;14.10;99.90
22742;DHT22;11538;48.884;8.696;2022-11-15T13:17:45;14.40;99.90
22742;DHT22;11538;48.884;8.696;2022-11-15T13:30:52;14.70;99.90
22742;DHT22;11538;48.884;8.696;2022-11-15T13:33:36;14.70;99.90
22742;DHT22;11538;48.884;8.696;2022-11-15T13:36:12;14.80;99.90
22742;DHT22;11538;48.884;8.696;2022-11-15T13:38:43;14.80;99.90
22742;DHT22;11538;48.884;8.696;2022-11-15T13:41:19;14.80;99.90
22742;DHT22;11538;48.884;8.696;2022-11-15T13:43:48;14.80;99.90
22742;DHT22;11538;48.884;8.696;2022-11-15T13:46:17;14.70;99.90
22742;DHT22;11538;48.884;8.696;2022-11-15T13:48:59;14.70;99.90
22742;DHT22;11538;48.884;8.696;2022-11-15T13:51:33;14.70;99.90
22742;DHT22;11538;48.884;8.696;2022-11-15T13:54:50;14.60;99.90
22742;DHT22;11538;48.884;8.696;2022-11-15T13:56:57;14.60;99.90
22742;DHT22;11538;48.884;8.696;2022-11-15T13:59:26;14.60;99.90
22742;DHT22;11538;48.884;8.696;2022-11-15T14:01:55;14.60;99.90
22742;DHT22;11538;48.884;8.696;2022-11-15T14:04:25;14.60;99.90
22742;DHT22;11538;48.884;8.696;2022-11-15T14:06:56;14.50;99.90
22742;DHT22;11538;48.884;8.696;2022-11-15T14:09:29;14.50;99.90
22742;DHT22;11538;48.884;8.696;2022-11-15T14:12:02;14.50;99.90
22742;DHT22;11538;48.884;8.696;2022-11-15T14:14:48;14.50;99.90
22742;DHT22;11538;48.884;8.696;2022-11-15T14:17:32;14.50;99.90
22742;DHT22;11538;48.884;8.696;2022-11-15T14:20:01;14.50;99.90
22742;DHT22;11538;48.884;8.696;2022-11-15T14:22:29;14.50;99.90
22742;DHT22;11538;48.884;8.696;2022-11-15T14:25:30;14.50;99.90
22742;DHT22;11538;48.884;8.696;2022-11-15T14:30:43;14.40;99.90
22742;DHT22;11538;48.884;8.696;2022-11-15T14:33:17;14.40;99.90
22742;DHT22;11538;48.884;8.696;2022-11-15T14:35:55;14.40;99.90
22742;DHT22;11538;48.884;8.696;2022-11-15T14:38:24;14.30;99.90
22742;DHT22;11538;48.884;8.696;2022-11-15T14:40:51;14.40;99.90
22742;DHT22;11538;48.884;8.696;2022-11-15T14:43:18;14.40;99.90
22742;DHT22;11538;48.884;8.696;2022-11-15T14:45:45;14.40;99.90
22742;DHT22;11538;48.884;8.696;2022-11-15T14:48:11;14.50;99.90
22742;DHT22;11538;48.884;8.696;2022-11-15T14:50:38;14.50;99.90
22742;DHT22;11538;48.884;8.696;2022-11-15T14:53:05;14.50;99.90
22742;DHT22;11538;48.884;8.696;2022-11-15T14:55:33;14.60;99.90
22742;DHT22;11538;48.884;8.696;2022-11-15T14:58:02;14.50;99.90
22742;DHT22;11538;48.884;8.696;2022-11-15T15:00:30;14.50;99.90
22742;DHT22;11538;48.884;8.696;2022-11-15T15:03:01;14.50;99.90
22742;DHT22;11538;48.884;8.696;2022-11-15T15:05:34;14.40;99.90
22742;DHT22;11538;48.884;8.696;2022-11-15T15:08:03;14.40;99.90
22742;DHT22;11538;48.884;8.696;2022-11-15T15:10:33;14.30;99.90
22742;DHT22;11538;48.884;8.696;2022-11-15T15:13:08;14.30;99.90
22742;DHT22;11538;48.884;8.696;2022-11-15T15:15:43;14.30;99.90
22742;DHT22;11538;48.884;8.696;2022-11-15T15:18:10;14.20;99.90
22742;DHT22;11538;48.884;8.696;2022-11-15T15:20:38;14.20;99.90
22742;DHT22;11538;48.884;8.696;2022-11-15T15:23:16;14.10;99.90
22742;DHT22;11538;48.884;8.696;2022-11-15T15:25:45;14.10;99.90
22742;DHT22;11538;48.884;8.696;2022-11-15T15:28:14;14.00;99.90
22742;DHT22;11538;48.884;8.696;2022-11-15T15:30:41;14.00;99.90
22742;DHT22;11538;48.884;8.696;2022-11-15T15:33:08;14.00;99.90
22742;DHT22;11538;48.884;8.696;2022-11-15T15:35:35;14.00;99.90
22742;DHT22;11538;48.884;8.696;2022-11-15T15:38:02;13.90;99.90
22742;DHT22;11538;48.884;8.696;2022-11-15T15:40:30;13.90;99.90
22742;DHT22;11538;48.884;8.696;2022-11-15T15:42:58;13.90;99.90
22742;DHT22;11538;48.884;8.696;2022-11-15T15:45:25;13.90;99.90
22742;DHT22;11538;48.884;8.696;2022-11-15T15:47:54;13.90;99.90
22742;DHT22;11538;48.884;8.696;2022-11-15T15:50:28;13.80;99.90
22742;DHT22;11538;48.884;8.696;2022-11-15T15:52:57;13.80;99.90
22742;DHT22;11538;48.884;8.696;2022-11-15T15:55:25;13.80;99.90
22742;DHT22;11538;48.884;8.696;2022-11-15T15:57:53;13.80;99.90
22742;DHT22;11538;48.884;8.696;2022-11-15T16:00:20;13.80;99.90
22742;DHT22;11538;48.884;8.696;2022-11-15T16:02:49;13.80;99.90
22742;DHT22;11538;48.884;8.696;2022-11-15T16:05:16;13.70;99.90
22742;DHT22;11538;48.884;8.696;2022-11-15T16:07:43;13.70;99.90
22742;DHT22;11538;48.884;8.696;2022-11-15T16:12:47;13.70;99.90
22742;DHT22;11538;48.884;8.696;2022-11-15T16:15:14;13.70;99.90
22742;DHT22;11538;48.884;8.696;2022-11-15T16:17:43;13.70;99.90
22742;DHT22;11538;48.884;8.696;2022-11-15T16:20:20;13.70;99.90
22742;DHT22;11538;48.884;8.696;2022-11-15T16:22:47;13.70;99.90
22742;DHT22;11538;48.884;8.696;2022-11-15T16:25:14;13.70;99.90
22742;DHT22;11538;48.884;8.696;2022-11-15T16:27:41;13.70;99.90
22742;DHT22;11538;48.884;8.696;2022-11-15T16:30:15;13.70;99.90
22742;DHT22;11538;48.884;8.696;2022-11-15T16:32:43;13.70;99.90
22742;DHT22;11538;48.884;8.696;2022-11-15T16:35:14;13.60;99.90
22742;DHT22;11538;48.884;8.696;2022-11-15T16:37:44;13.60;99.90
22742;DHT22;11538;48.884;8.696;2022-11-15T16:40:28;13.60;99.90
22742;DHT22;11538;48.884;8.696;2022-11-15T16:42:57;13.60;99.90
22742;DHT22;11538;48.884;8.696;2022-11-15T16:45:25;13.60;99.90
22742;DHT22;11538;48.884;8.696;2022-11-15T16:47:54;13.60;99.90
22742;DHT22;11538;48.884;8.696;2022-11-15T16:50:26;13.60;99.90
22742;DHT22;11538;48.884;8.696;2022-11-15T16:52:55;13.60;99.90
22742;DHT22;11538;48.884;8.696;2022-11-15T16:55:25;13.60;99.90
22742;DHT22;11538;48.884;8.696;2022-11-15T16:57:54;13.60;99.90
22742;DHT22;11538;48.884;8.696;2022-11-15T17:00:23;13.60;99.90
22742;DHT22;11538;48.884;8.696;2022-11-15T17:02:51;13.60;99.90
22742;DHT22;11538;48.884;8.696;2022-11-15T17:05:20;13.60;99.90
22742;DHT22;11538;48.884;8.696;2022-11-15T17:07:49;13.50;99.90
22742;DHT22;11538;48.884;8.696;2022-11-15T17:10:20;13.50;99.90
22742;DHT22;11538;48.884;8.696;2022-11-15T17:12:48;13.50;99.90
22742;DHT22;11538;48.884;8.696;2022-11-15T17:15:15;13.50;99.90
22742;DHT22;11538;48.884;8.696;2022-11-15T17:17:43;13.60;99.90
22742;DHT22;11538;48.884;8.696;2022-11-15T17:20:12;13.50;99.90
22742;DHT22;11538;48.884;8.696;2022-11-15T17:22:41;13.50;99.90
22742;DHT22;11538;48.884;8.696;2022-11-15T17:25:08;13.50;99.90
22742;DHT22;11538;48.884;8.696;2022-11-15T17:27:35;13.50;99.90
22742;DHT22;11538;48.884;8.696;2022-11-15T17:30:02;13.60;99.90
22742;DHT22;11538;48.884;8.696;2022-11-15T17:32:29;13.60;99.90
22742;DHT22;11538;48.884;8.696;2022-11-15T17:34:56;13.60;99.90
22742;DHT22;11538;48.884;8.696;2022-11-15T17:37:23;13.60;99.90
22742;DHT22;11538;48.884;8.696;2022-11-15T17:39:50;13.60;99.90
22742;DHT22;11538;48.884;8.696;2022-11-15T17:42:16;13.60;99.90
22742;DHT22;11538;48.884;8.696;2022-11-15T17:44:43;13.60;99.90
22742;DHT22;11538;48.884;8.696;2022-11-15T17:47:10;13.60;99.90
22742;DHT22;11538;48.884;8.696;2022-11-15T17:49:36;13.60;99.90